createdAt,value
2023-04-06T00:02:04.888Z,21.13
2023-04-06T00:04:33.016Z,20.02
2023-04-06T00:07:00.717Z,24.88
2023-04-06T00:09:29.829Z,20.55
2023-04-06T00:11:57.521Z,16.80
2023-04-06T00:14:25.369Z,22.17
2023-04-06T00:16:53.111Z,21.20
2023-04-06T00:19:20.851Z,19.90
2023-04-06T00:21:48.656Z,23.52
2023-04-06T00:24:16.407Z,20.75
2023-04-06T00:26:45.506Z,16.85
2023-04-06T00:29:13.175Z,21.20
2023-04-06T00:31:41.317Z,19.98
2023-04-06T00:34:09.150Z,19.60
2023-04-06T00:36:36.803Z,18.23
2023-04-06T00:39:04.622Z,19.33
2023-04-06T00:41:32.476Z,20.25
2023-04-06T00:44:01.581Z,19.67
2023-04-06T00:46:30.567Z,20.80
2023-04-06T00:48:58.999Z,20.80
2023-04-06T00:51:26.695Z,22.33
2023-04-06T00:53:56.123Z,21.40
2023-04-06T00:56:24.566Z,19.88
2023-04-06T00:58:52.362Z,21.65
2023-04-06T01:01:21.787Z,19.45
2023-04-06T01:03:51.257Z,21.23
2023-04-06T01:06:19.052Z,26.02
2023-04-06T01:08:46.690Z,18.48
2023-04-06T01:11:14.337Z,22.48
2023-04-06T01:13:42.019Z,23.27
2023-04-06T01:16:10.884Z,22.88
2023-04-06T01:18:43.285Z,32.00
2023-04-06T01:21:16.252Z,19.33
2023-04-06T01:23:46.525Z,20.75
2023-04-06T01:26:14.260Z,21.05
2023-04-06T01:28:41.984Z,21.75
2023-04-06T01:31:10.154Z,19.65
2023-04-06T01:33:38.018Z,17.15
2023-04-06T01:36:06.286Z,22.25
2023-04-06T01:38:34.039Z,19.95
2023-04-06T01:41:03.058Z,19.80
2023-04-06T01:43:30.876Z,21.23
2023-04-06T01:45:58.539Z,23.80
2023-04-06T01:48:26.215Z,18.80
2023-04-06T01:50:53.869Z,21.00
2023-04-06T01:53:21.590Z,22.75
2023-04-06T01:55:49.517Z,24.83
2023-04-06T01:58:18.559Z,20.10
2023-04-06T02:00:46.412Z,22.77
2023-04-06T02:03:15.671Z,22.00
2023-04-06T02:05:43.398Z,22.95
2023-04-06T02:08:11.095Z,20.98
2023-04-06T02:10:38.750Z,25.05
2023-04-06T02:13:06.445Z,20.98
2023-04-06T02:15:35.523Z,26.00
2023-04-06T02:18:03.265Z,24.77
2023-04-06T02:20:30.937Z,20.75
2023-04-06T02:22:58.800Z,21.67
2023-04-06T02:25:26.456Z,20.67
2023-04-06T02:27:54.116Z,22.88
2023-04-06T02:30:21.815Z,22.00
2023-04-06T02:32:51.038Z,24.77
2023-04-06T02:35:19.757Z,21.48
2023-04-06T02:37:47.426Z,26.80
2023-04-06T02:40:16.112Z,23.52
2023-04-06T02:42:43.893Z,23.95
2023-04-06T02:45:11.912Z,24.13
2023-04-06T02:47:39.589Z,19.70
2023-04-06T02:50:08.969Z,21.63
2023-04-06T02:52:36.852Z,23.98
2023-04-06T02:55:04.718Z,20.25
2023-04-06T02:57:32.360Z,24.73
2023-04-06T03:00:00.612Z,22.15
2023-04-06T03:02:28.293Z,23.08
2023-04-06T03:04:56.440Z,24.90
2023-04-06T03:07:25.557Z,23.92
2023-04-06T03:09:53.236Z,26.05
2023-04-06T03:12:20.962Z,20.90
2023-04-06T03:14:48.799Z,22.75
2023-04-06T03:17:16.846Z,22.15
2023-04-06T03:19:44.544Z,26.60
2023-04-06T03:22:12.234Z,26.58
2023-04-06T03:24:41.228Z,22.23
2023-04-06T03:27:08.925Z,24.00
2023-04-06T03:29:36.696Z,27.63
2023-04-06T03:32:04.651Z,25.00
2023-04-06T03:34:32.327Z,23.40
2023-04-06T03:37:09.206Z,22.15
2023-04-06T03:39:37.817Z,24.73
2023-04-06T03:42:06.993Z,23.20
2023-04-06T03:44:34.701Z,28.42
2023-04-06T03:47:03.305Z,26.13
2023-04-06T03:49:31.037Z,24.05
2023-04-06T03:51:59.127Z,23.15
2023-04-06T03:54:27.013Z,19.17
2023-04-06T03:56:54.695Z,23.52
2023-04-06T03:59:23.859Z,25.17
2023-04-06T04:01:53.452Z,23.00
2023-04-06T04:04:21.364Z,26.30
2023-04-06T04:06:49.047Z,24.00
2023-04-06T04:09:16.859Z,22.20
2023-04-06T04:11:44.627Z,24.48
2023-04-06T04:14:12.325Z,24.05
2023-04-06T04:16:42.947Z,25.17
2023-04-06T04:19:11.158Z,27.45
2023-04-06T04:21:44.527Z,19.65
2023-04-06T04:24:13.824Z,18.90
2023-04-06T04:26:42.081Z,22.70
2023-04-06T04:29:09.900Z,19.25
2023-04-06T04:31:37.831Z,24.13
2023-04-06T04:34:10.552Z,21.85
2023-04-06T04:36:38.246Z,20.70
2023-04-06T04:39:07.370Z,24.85
2023-04-06T04:41:35.305Z,26.65
2023-04-06T04:44:03.010Z,24.92
2023-04-06T04:46:30.931Z,21.25
2023-04-06T04:48:58.605Z,22.73
2023-04-06T04:51:27.742Z,17.85
2023-04-06T04:53:56.533Z,20.58
2023-04-06T04:56:24.192Z,18.73
2023-04-06T04:58:51.947Z,20.23
2023-04-06T05:01:19.711Z,23.50
2023-04-06T05:03:47.579Z,18.58
2023-04-06T05:06:15.593Z,19.10
2023-04-06T05:08:44.769Z,17.60
2023-04-06T05:11:12.480Z,19.20
2023-04-06T05:13:40.671Z,20.55
2023-04-06T05:16:08.908Z,19.23
2023-04-06T05:18:36.688Z,19.48
2023-04-06T05:21:04.514Z,24.23
2023-04-06T05:23:32.337Z,17.42
2023-04-06T05:26:01.391Z,13.55
2023-04-06T05:28:29.100Z,15.82
2023-04-06T05:30:57.926Z,24.77
2023-04-06T05:33:26.117Z,28.15
2023-04-06T05:35:53.794Z,18.73
2023-04-06T05:38:21.494Z,15.13
2023-04-06T05:40:49.234Z,14.15
2023-04-06T05:43:18.243Z,12.52
2023-04-06T05:45:46.458Z,15.20
2023-04-06T05:48:14.192Z,15.07
2023-04-06T05:50:42.883Z,14.93
2023-04-06T05:53:10.638Z,14.23
2023-04-06T05:55:38.629Z,9.50
2023-04-06T05:58:07.870Z,13.55
2023-04-06T06:00:36.931Z,12.35
2023-04-06T06:03:07.061Z,15.45
2023-04-06T06:05:34.914Z,16.73
2023-04-06T06:08:03.187Z,9.30
2023-04-06T06:10:31.310Z,14.90
2023-04-06T06:12:59.015Z,19.90
2023-04-06T06:15:27.166Z,20.45
2023-04-06T06:17:56.229Z,23.02
2023-04-06T06:20:23.979Z,21.63
2023-04-06T06:22:52.782Z,17.95
2023-04-06T06:25:20.445Z,24.45
2023-04-06T06:27:48.148Z,21.98
2023-04-06T06:30:18.925Z,28.63
2023-04-06T06:32:47.622Z,24.40
2023-04-06T06:35:17.323Z,27.38
2023-04-06T06:37:45.252Z,24.25
2023-04-06T06:40:14.260Z,25.88
2023-04-06T06:42:42.736Z,26.58
2023-04-06T06:45:11.337Z,23.48
2023-04-06T06:47:39.012Z,24.50
2023-04-06T06:50:07.375Z,25.67
2023-04-06T06:52:36.734Z,25.30
2023-04-06T06:55:04.766Z,29.95
2023-04-06T06:57:32.624Z,27.35
2023-04-06T07:00:00.981Z,21.65
2023-04-06T07:02:28.738Z,31.65
2023-04-06T07:04:56.506Z,20.90
2023-04-06T07:07:24.258Z,25.50
2023-04-06T07:09:53.404Z,26.92
2023-04-06T07:12:21.203Z,19.90
2023-04-06T07:14:49.106Z,23.75
2023-04-06T07:17:17.145Z,18.65
2023-04-06T07:19:44.883Z,21.77
2023-04-06T07:22:12.589Z,20.45
2023-04-06T07:24:41.519Z,21.25
2023-04-06T07:27:10.595Z,18.38
2023-04-06T07:29:38.328Z,21.33
2023-04-06T07:32:06.205Z,18.13
2023-04-06T07:34:34.458Z,23.33
2023-04-06T07:37:04.311Z,20.02
2023-04-06T07:39:32.014Z,18.90
2023-04-06T07:41:59.705Z,21.17
2023-04-06T07:44:28.759Z,18.50
2023-04-06T07:46:56.429Z,18.33
2023-04-06T07:49:24.091Z,17.73
2023-04-06T07:51:51.853Z,17.48
2023-04-06T07:54:19.575Z,18.60
2023-04-06T07:56:48.103Z,20.50
2023-04-06T07:59:15.849Z,19.90
2023-04-06T08:01:45.016Z,17.40
2023-04-06T08:04:12.826Z,17.75
2023-04-06T08:06:42.217Z,22.90
2023-04-06T08:09:09.895Z,19.70
2023-04-06T08:11:37.673Z,21.42
2023-04-06T08:14:05.310Z,16.13
2023-04-06T08:16:32.989Z,16.73
2023-04-06T08:19:02.002Z,20.15
2023-04-06T08:21:29.703Z,15.95
2023-04-06T08:23:57.367Z,12.68
2023-04-06T08:26:25.095Z,21.10
2023-04-06T08:28:52.771Z,25.08
2023-04-06T08:31:20.434Z,18.45
2023-04-06T08:33:48.152Z,16.77
2023-04-06T08:36:19.331Z,15.40
2023-04-06T08:38:47.044Z,19.02
2023-04-06T08:41:15.959Z,18.40
2023-04-06T08:43:44.978Z,18.17
2023-04-06T08:46:13.579Z,14.82
2023-04-06T08:48:42.034Z,15.55
2023-04-06T08:51:12.036Z,15.65
2023-04-06T08:53:41.196Z,18.83
2023-04-06T08:56:09.287Z,17.17
2023-04-06T08:58:38.770Z,15.13
2023-04-06T09:01:09.223Z,12.95
2023-04-06T09:03:38.978Z,13.23
2023-04-06T09:06:07.751Z,15.00
2023-04-06T09:08:36.040Z,14.77
2023-04-06T09:11:05.350Z,16.63
2023-04-06T09:13:33.228Z,17.83
2023-04-06T09:16:01.633Z,11.10
2023-04-06T09:18:32.791Z,14.15
2023-04-06T09:21:01.477Z,14.43
2023-04-06T09:23:30.742Z,19.88
2023-04-06T09:26:09.846Z,12.63
2023-04-06T09:28:44.141Z,12.13
2023-04-06T09:31:12.011Z,14.93
2023-04-06T09:33:40.755Z,10.73
2023-04-06T09:36:08.906Z,12.38
2023-04-06T09:38:36.954Z,18.27
2023-04-06T09:41:04.738Z,15.40
2023-04-06T09:43:33.895Z,18.45
2023-04-06T09:46:03.970Z,11.98
2023-04-06T09:48:33.243Z,14.63
2023-04-06T09:51:01.928Z,13.50
2023-04-06T09:53:30.951Z,16.63
2023-04-06T09:56:02.076Z,14.98
2023-04-06T09:58:33.163Z,16.67
2023-04-06T10:01:05.062Z,18.33
2023-04-06T10:03:38.660Z,12.63
2023-04-06T10:06:08.321Z,13.05
2023-04-06T10:08:37.313Z,16.63
2023-04-06T10:11:06.742Z,18.02
2023-04-06T10:13:34.882Z,16.95
2023-04-06T10:16:03.981Z,18.00
2023-04-06T10:18:31.866Z,17.80
2023-04-06T10:21:02.459Z,17.80
2023-04-06T10:23:33.161Z,16.13
2023-04-06T10:26:01.954Z,20.55
2023-04-06T10:28:32.976Z,14.02
2023-04-06T10:31:01.349Z,17.30
2023-04-06T10:33:30.647Z,16.77
2023-04-06T10:35:58.609Z,16.58
2023-04-06T10:38:37.048Z,19.80
2023-04-06T10:41:07.382Z,17.65
2023-04-06T10:43:36.100Z,17.35
2023-04-06T10:46:04.213Z,19.10
2023-04-06T10:48:40.359Z,18.60
2023-04-06T10:51:12.218Z,19.92
2023-04-06T10:53:40.160Z,16.10
2023-04-06T10:56:12.421Z,18.30
2023-04-06T10:58:40.499Z,16.98
2023-04-06T11:01:08.389Z,20.25
2023-04-06T11:03:46.229Z,19.08
2023-04-06T11:06:20.047Z,17.10
2023-04-06T11:08:47.785Z,17.90
2023-04-06T11:11:17.046Z,16.65
2023-04-06T11:13:45.994Z,17.63
2023-04-06T11:16:18.163Z,18.63
2023-04-06T11:18:53.198Z,12.95
2023-04-06T11:21:21.297Z,11.75
2023-04-06T11:23:48.966Z,14.02
2023-04-06T11:26:16.817Z,11.63
2023-04-06T11:28:44.754Z,10.52
2023-04-06T11:31:13.295Z,12.07
2023-04-06T11:33:41.132Z,13.60
2023-04-06T11:36:10.568Z,10.48
2023-04-06T11:38:40.866Z,15.75
2023-04-06T11:41:08.549Z,16.08
2023-04-06T11:43:36.245Z,16.77
2023-04-06T11:46:04.721Z,14.23
2023-04-06T11:48:33.366Z,15.25
2023-04-06T11:51:02.282Z,13.60
2023-04-06T11:53:31.580Z,18.90
2023-04-06T11:56:00.701Z,15.45
2023-04-06T11:58:28.505Z,12.60
2023-04-06T12:00:56.215Z,16.38
2023-04-06T12:03:24.034Z,17.30
2023-04-06T12:05:52.141Z,15.95
2023-04-06T12:08:19.881Z,15.55
2023-04-06T12:10:48.943Z,15.82
2023-04-06T12:13:16.679Z,19.08
2023-04-06T12:15:44.346Z,18.63
2023-04-06T12:18:12.090Z,16.75
2023-04-06T12:20:39.846Z,16.35
2023-04-06T12:23:07.947Z,16.85
2023-04-06T12:25:35.664Z,17.40
2023-04-06T12:28:04.700Z,19.27
2023-04-06T12:30:33.159Z,17.95
2023-04-06T12:33:03.754Z,15.55
2023-04-06T12:35:35.983Z,21.67
2023-04-06T12:38:03.692Z,15.23
2023-04-06T12:40:31.376Z,19.95
2023-04-06T12:42:59.065Z,14.90
2023-04-06T12:45:28.359Z,17.65
2023-04-06T12:47:56.147Z,18.50
2023-04-06T12:50:23.918Z,17.65
2023-04-06T12:52:51.620Z,15.73
2023-04-06T12:55:19.465Z,16.70
2023-04-06T12:57:47.523Z,19.33
2023-04-06T13:00:16.154Z,13.77
2023-04-06T13:02:48.337Z,15.63
2023-04-06T13:05:19.607Z,15.70
2023-04-06T13:07:48.450Z,15.10
2023-04-06T13:10:16.152Z,21.05
2023-04-06T13:12:43.829Z,19.98
2023-04-06T13:15:12.160Z,14.25
2023-04-06T13:17:39.871Z,17.90
2023-04-06T13:20:10.917Z,14.23
2023-04-06T13:22:38.560Z,19.45
2023-04-06T13:25:07.618Z,15.00
2023-04-06T13:27:36.728Z,12.75
2023-04-06T13:30:04.810Z,22.33
2023-04-06T13:32:32.524Z,19.15
2023-04-06T13:35:01.777Z,19.80
2023-04-06T13:37:31.108Z,18.30
2023-04-06T13:39:58.764Z,19.48
2023-04-06T13:42:26.410Z,16.02
2023-04-06T13:44:54.665Z,18.27
2023-04-06T13:47:22.945Z,20.27
2023-04-06T13:49:51.909Z,24.45
2023-04-06T13:52:19.581Z,20.27
2023-04-06T13:54:48.626Z,18.98
2023-04-06T13:57:16.845Z,24.60
2023-04-06T14:02:17.454Z,15.93
2023-04-06T14:04:45.863Z,17.23
2023-04-06T14:07:13.483Z,21.95
2023-04-06T14:09:41.104Z,17.65
2023-04-06T14:12:10.077Z,17.70
2023-04-06T14:14:37.886Z,21.35
2023-04-06T14:17:05.830Z,13.95
2023-04-06T14:19:34.098Z,12.65
2023-04-06T14:22:01.851Z,17.67
2023-04-06T14:24:29.437Z,16.52
2023-04-06T14:26:57.686Z,20.27
2023-04-06T14:29:26.698Z,11.15
2023-04-06T14:31:54.306Z,17.05
2023-04-06T14:34:22.231Z,13.48
2023-04-06T14:36:50.605Z,15.80
2023-04-06T14:39:18.246Z,14.80
2023-04-06T14:41:46.109Z,13.23
2023-04-06T14:44:14.241Z,12.00
2023-04-06T14:46:43.482Z,17.92
2023-04-06T14:49:11.588Z,11.32
2023-04-06T14:51:40.113Z,12.57
2023-04-06T14:54:07.724Z,10.98
2023-04-06T14:56:35.527Z,11.25
2023-04-06T14:59:04.033Z,16.63
2023-04-06T15:01:32.123Z,11.23
2023-04-06T15:04:01.846Z,10.63
2023-04-06T15:06:29.631Z,11.43
2023-04-06T15:08:57.280Z,11.98
2023-04-06T15:11:24.947Z,12.10
2023-04-06T15:13:53.154Z,11.07
2023-04-06T15:16:21.033Z,11.07
2023-04-06T15:18:48.693Z,8.63
2023-04-06T15:21:18.627Z,14.35
2023-04-06T15:23:46.590Z,11.98
2023-04-06T15:26:14.458Z,11.70
2023-04-06T15:28:42.147Z,8.00
2023-04-06T15:31:20.755Z,10.40
2023-04-06T15:33:52.030Z,8.30
2023-04-06T15:36:27.170Z,12.23
2023-04-06T15:38:54.871Z,9.75
2023-04-06T15:41:22.533Z,6.97
2023-04-06T15:43:50.440Z,6.90
2023-04-06T15:46:18.106Z,8.27
2023-04-06T15:48:45.947Z,8.18
2023-04-06T15:51:13.898Z,4.82
2023-04-06T15:53:44.489Z,7.03
2023-04-06T15:56:14.412Z,9.30
2023-04-06T15:58:42.597Z,18.80
2023-04-06T16:01:14.608Z,7.43
2023-04-06T16:03:45.623Z,7.38
2023-04-06T16:06:13.664Z,10.02
2023-04-06T16:08:41.582Z,11.57
2023-04-06T16:11:10.892Z,8.30
2023-04-06T16:13:38.618Z,7.57
2023-04-06T16:16:06.726Z,13.95
2023-04-06T16:18:36.453Z,9.40
2023-04-06T16:21:05.577Z,7.10
2023-04-06T16:23:33.258Z,8.02
2023-04-06T16:26:01.167Z,13.25
2023-04-06T16:28:31.498Z,9.70
2023-04-06T16:30:59.621Z,12.20
2023-04-06T16:33:27.355Z,12.90
2023-04-06T16:35:58.268Z,9.43
2023-04-06T16:38:30.082Z,14.18
2023-04-06T16:41:00.856Z,12.70
2023-04-06T16:43:28.664Z,12.13
2023-04-06T16:45:57.664Z,8.70
2023-04-06T16:48:25.449Z,13.45
2023-04-06T16:50:53.126Z,11.75
2023-04-06T16:53:20.850Z,10.15
2023-04-06T16:55:48.520Z,14.63
2023-04-06T16:58:16.441Z,17.48
2023-04-06T17:00:45.302Z,9.90
2023-04-06T17:03:15.007Z,9.90
2023-04-06T17:05:43.272Z,8.45
2023-04-06T17:08:11.416Z,9.82
2023-04-06T17:10:59.088Z,13.93
2023-04-06T17:13:30.542Z,16.63
2023-04-06T17:16:00.646Z,10.88
2023-04-06T17:18:30.816Z,15.50
2023-04-06T17:20:58.642Z,14.73
2023-04-06T17:23:26.599Z,13.43
2023-04-06T17:25:57.396Z,15.07
2023-04-06T17:28:26.005Z,18.83
2023-04-06T17:30:53.671Z,11.65
2023-04-06T17:33:23.768Z,17.45
2023-04-06T17:35:52.884Z,11.52
2023-04-06T17:38:21.290Z,12.55
2023-04-06T17:40:50.701Z,12.65
2023-04-06T17:43:18.386Z,7.25
2023-04-06T17:45:46.129Z,22.70
2023-04-06T17:48:13.770Z,6.82
2023-04-06T17:50:41.412Z,5.43
2023-04-06T17:53:10.998Z,7.85
2023-04-06T17:55:39.240Z,4.45
2023-04-06T17:58:07.325Z,7.60
2023-04-06T18:00:38.454Z,4.85
2023-04-06T18:03:06.375Z,6.18
2023-04-06T18:05:39.704Z,3.97
2023-04-06T18:08:07.353Z,5.57
2023-04-06T18:10:40.046Z,2.97
2023-04-06T18:13:08.201Z,8.23
2023-04-06T18:15:36.550Z,3.55
2023-04-06T18:18:08.310Z,4.57
2023-04-06T18:20:40.530Z,5.03
2023-04-06T18:23:08.279Z,3.22
2023-04-06T18:25:51.109Z,9.15
2023-04-06T18:28:20.315Z,4.03
2023-04-06T18:30:47.999Z,9.73
2023-04-06T18:33:15.753Z,5.20
2023-04-06T18:35:43.329Z,7.85
2023-04-06T18:38:11.312Z,10.23
2023-04-06T18:40:39.647Z,5.72
2023-04-06T18:43:08.298Z,10.45
2023-04-06T18:45:38.952Z,13.23
2023-04-06T18:48:08.244Z,5.65
2023-04-06T18:50:36.132Z,13.98
2023-04-06T18:53:03.997Z,9.05
2023-04-06T18:55:33.185Z,12.90
2023-04-06T18:58:01.430Z,7.45
2023-04-06T19:00:29.126Z,13.80
2023-04-06T19:05:58.959Z,21.55
2023-04-06T19:08:26.614Z,13.20
2023-04-06T19:10:54.219Z,12.90
2023-04-06T19:13:21.854Z,6.90
2023-04-06T19:15:51.311Z,21.58
2023-04-06T19:18:21.699Z,15.65
2023-04-06T19:20:49.433Z,10.90
2023-04-06T19:23:17.404Z,18.50
2023-04-06T19:25:45.208Z,15.20
2023-04-06T19:28:14.747Z,11.27
2023-04-06T19:30:42.418Z,18.88
2023-04-06T19:33:10.190Z,12.65
2023-04-06T19:35:39.474Z,12.35
2023-04-06T19:38:07.116Z,10.65
2023-04-06T19:40:34.810Z,5.97
2023-04-06T19:43:02.485Z,9.65
2023-04-06T19:45:30.429Z,13.45
2023-04-06T19:47:58.397Z,15.18
2023-04-06T19:50:26.447Z,10.63
2023-04-06T19:52:56.249Z,10.75
2023-04-06T19:55:23.864Z,11.85
2023-04-06T19:57:53.213Z,15.35
2023-04-06T20:00:21.232Z,8.60
2023-04-06T20:02:49.056Z,15.93
2023-04-06T20:05:22.326Z,11.88
2023-04-06T20:07:50.134Z,10.55
2023-04-06T20:10:19.121Z,9.57
2023-04-06T20:12:47.796Z,10.45
2023-04-06T20:15:15.735Z,7.45
2023-04-06T20:17:43.525Z,17.23
2023-04-06T20:20:12.467Z,10.65
2023-04-06T20:22:40.766Z,15.65
2023-04-06T20:25:12.034Z,13.07
2023-04-06T20:27:41.158Z,6.43
2023-04-06T20:30:12.176Z,12.45
2023-04-06T20:32:39.985Z,10.65
2023-04-06T20:35:07.877Z,7.43
2023-04-06T20:37:36.043Z,9.60
2023-04-06T20:40:04.168Z,10.73
2023-04-06T20:42:32.790Z,3.15
2023-04-06T20:45:03.166Z,10.18
2023-04-06T20:47:31.655Z,7.32
2023-04-06T20:49:59.637Z,19.98
2023-04-06T20:52:27.675Z,10.35
2023-04-06T20:54:56.405Z,6.43
2023-04-06T20:57:24.258Z,11.32
2023-04-06T20:59:51.859Z,12.20
2023-04-06T21:02:21.186Z,16.88
2023-04-06T21:04:48.951Z,8.65
2023-04-06T21:07:16.899Z,9.57
2023-04-06T21:09:44.468Z,12.63
2023-04-06T21:12:12.718Z,9.13
2023-04-06T21:14:41.310Z,5.90
2023-04-06T21:17:09.013Z,8.88
2023-04-06T21:19:38.945Z,8.82
2023-04-06T21:22:07.073Z,9.80
2023-04-06T21:24:34.740Z,12.65
2023-04-06T21:27:02.359Z,7.18
2023-04-06T21:29:30.119Z,8.30
2023-04-06T21:31:57.916Z,10.75
2023-04-06T21:34:25.607Z,9.07
2023-04-06T21:36:57.156Z,13.13
2023-04-06T21:39:25.407Z,5.55
2023-04-06T21:41:53.013Z,9.98
2023-04-06T21:44:20.954Z,11.88
2023-04-06T21:46:48.811Z,9.40
2023-04-06T21:49:16.442Z,9.43
2023-04-06T21:51:44.159Z,10.02
2023-04-06T21:54:13.429Z,10.52
2023-04-06T21:56:41.213Z,13.73
2023-04-06T21:59:08.995Z,5.88
2023-04-06T22:01:36.596Z,10.65
2023-04-06T22:04:04.394Z,10.38
2023-04-06T22:06:32.193Z,7.30
2023-04-06T22:09:00.508Z,11.52
2023-04-06T22:11:29.557Z,8.23
2023-04-06T22:13:57.266Z,15.10
2023-04-06T22:16:25.036Z,9.95
2023-04-06T22:18:52.749Z,7.72
2023-04-06T22:21:20.490Z,10.13
2023-04-06T22:23:48.207Z,5.60
2023-04-06T22:26:16.009Z,10.43
2023-04-06T22:28:45.009Z,9.00
2023-04-06T22:31:12.695Z,6.75
2023-04-06T22:33:40.387Z,6.43
2023-04-06T22:36:08.327Z,8.35
2023-04-06T22:38:37.133Z,4.70
2023-04-06T22:41:06.046Z,9.10
2023-04-06T22:43:36.637Z,10.68
2023-04-06T22:46:05.982Z,5.18
2023-04-06T22:48:33.627Z,6.25
2023-04-06T22:51:01.264Z,8.50
2023-04-06T22:53:28.922Z,7.00
2023-04-06T22:55:56.728Z,5.85
2023-04-06T22:58:24.380Z,13.57
2023-04-06T23:00:52.030Z,7.32
2023-04-06T23:03:21.446Z,7.78
2023-04-06T23:05:49.181Z,7.20
2023-04-06T23:08:17.022Z,9.05
2023-04-06T23:10:44.664Z,5.53
2023-04-06T23:13:12.399Z,10.18
2023-04-06T23:15:40.099Z,6.55
2023-04-06T23:18:10.226Z,11.30
2023-04-06T23:20:40.997Z,8.73
2023-04-06T23:23:08.637Z,13.77
2023-04-06T23:25:36.891Z,9.52
2023-04-06T23:28:04.545Z,9.35
2023-04-06T23:30:32.220Z,8.23
2023-04-06T23:32:59.870Z,10.80
2023-04-06T23:35:28.246Z,11.73
2023-04-06T23:37:57.490Z,8.85
2023-04-06T23:40:25.337Z,11.75
2023-04-06T23:42:52.928Z,10.52
2023-04-06T23:45:20.883Z,9.30
2023-04-06T23:47:48.524Z,10.38
2023-04-06T23:50:16.245Z,10.02
2023-04-06T23:52:43.898Z,9.82
2023-04-06T23:55:12.886Z,12.43
2023-04-06T23:57:40.530Z,10.13
